Time;durP1;ratioP1;P1;durP2;ratioP2;P2;SDS_P1;SDS_P2;PMS_P1;PMS_P2;Temp;Humidity;BMP_temperature;BMP_pressure;BME280_temperature;BME280_humidity;BME280_pressure;Samples;Min_cycle;Max_cycle;Signal;HPM_P1;HPM_P2
2023/05/04 00:00:53;;;;;;;5.78;2.83;;;10.80;75.30;;;;;;5020938;28;20044;-74
2023/05/04 00:03:19;;;;;;;8.95;3.75;;;10.80;75.40;;;;;;5015642;28;20029;-74
2023/05/04 00:05:44;;;;;;;5.55;2.75;;;10.70;75.50;;;;;;5019483;28;20378;-74
2023/05/04 00:08:10;;;;;;;9.13;3.67;;;10.70;75.90;;;;;;5014779;28;20052;-74
2023/05/04 00:10:36;;;;;;;4.72;2.97;;;10.70;76.00;;;;;;5019041;28;20374;-74
2023/05/04 00:13:01;;;;;;;7.63;2.97;;;10.70;76.20;;;;;;5016167;28;20481;-74
2023/05/04 00:15:28;;;;;;;6.72;3.58;;;10.60;76.30;;;;;;5018735;28;20101;-74
2023/05/04 00:17:53;;;;;;;7.57;3.47;;;10.60;76.40;;;;;;5017103;28;20497;-73
2023/05/04 00:20:19;;;;;;;9.82;3.65;;;10.50;76.60;;;;;;5019339;28;20054;-74
2023/05/04 00:22:45;;;;;;;7.93;3.45;;;10.50;76.90;;;;;;5016975;28;20764;-74
2023/05/04 00:25:10;;;;;;;8.05;3.30;;;10.50;77.00;;;;;;5017957;28;20025;-75
2023/05/04 00:27:36;;;;;;;6.13;3.40;;;10.40;77.10;;;;;;5016587;28;20029;-74
2023/05/04 00:30:02;;;;;;;6.90;3.05;;;10.40;77.30;;;;;;5023841;28;20041;-71
2023/05/04 00:32:28;;;;;;;11.38;3.60;;;10.40;77.90;;;;;;5016834;28;20386;-71
2023/05/04 00:34:53;;;;;;;8.90;3.47;;;10.40;77.50;;;;;;5019704;28;20033;-71
2023/05/04 00:37:19;;;;;;;8.20;3.05;;;10.30;77.60;;;;;;5019991;28;20104;-71
2023/05/04 00:39:45;;;;;;;6.07;2.90;;;10.30;77.90;;;;;;5024036;28;20021;-71
2023/05/04 00:42:10;;;;;;;5.57;3.35;;;10.20;78.00;;;;;;5017282;28;20368;-71
2023/05/04 00:44:40;;;;;;;7.20;3.40;;;10.20;78.20;;;;;;5020729;28;20145;-71
2023/05/04 00:47:06;;;;;;;6.93;3.50;;;10.20;78.30;;;;;;5020277;28;20573;-71
2023/05/04 00:49:32;;;;;;;8.45;3.38;;;10.20;78.50;;;;;;5022770;28;20380;-71
2023/05/04 00:52:00;;;;;;;6.55;2.88;;;10.20;78.60;;;;;;5024374;28;20037;-71
2023/05/04 00:54:26;;;;;;;6.78;3.40;;;10.20;78.70;;;;;;5022561;28;20091;-71
2023/05/04 00:56:52;;;;;;;7.45;2.95;;;10.20;78.80;;;;;;5023460;28;20030;-71
2023/05/04 00:59:18;;;;;;;7.25;3.80;;;10.10;79.00;;;;;;5021887;28;20496;-71
2023/05/04 01:01:43;;;;;;;9.70;3.20;;;10.10;79.10;;;;;;5023155;28;20037;-71
2023/05/04 01:04:09;;;;;;;7.68;2.97;;;10.10;79.20;;;;;;5024657;28;20542;-71
2023/05/04 01:07:04;;;;;;;7.65;2.88;;;10.00;79.40;;;;;;5023420;28;20033;-71
2023/05/04 01:09:44;;;;;;;4.88;2.67;;;10.00;79.50;;;;;;5020809;28;20100;-71
2023/05/04 01:12:34;;;;;;;9.45;3.88;;;10.00;79.50;;;;;;5022658;28;20132;-71
2023/05/04 01:15:00;;;;;;;5.18;3.17;;;10.00;79.70;;;;;;5024055;28;20052;-71
2023/05/04 01:17:26;;;;;;;7.90;3.38;;;9.90;79.60;;;;;;5021487;28;20060;-71
2023/05/04 01:19:52;;;;;;;7.88;3.67;;;9.90;79.80;;;;;;5019119;28;20083;-71
2023/05/04 01:22:19;;;;;;;5.93;2.70;;;9.90;80.00;;;;;;5021326;28;20045;-71
2023/05/04 01:24:45;;;;;;;6.30;2.75;;;9.90;80.10;;;;;;5016574;28;20108;-72
2023/05/04 01:27:24;;;;;;;6.82;3.20;;;9.90;80.20;;;;;;5013765;28;20033;-71
2023/05/04 01:30:15;;;;;;;6.63;2.95;;;9.80;80.50;;;;;;5016813;28;20044;-71
2023/05/04 01:32:41;;;;;;;8.02;3.47;;;9.80;80.60;;;;;;5021012;28;20470;-71
2023/05/04 01:35:08;;;;;;;7.13;3.45;;;9.80;80.50;;;;;;5019768;28;20034;-71
2023/05/04 01:37:33;;;;;;;10.07;3.63;;;9.80;80.60;;;;;;5019266;28;20076;-71
2023/05/04 01:39:59;;;;;;;7.15;2.78;;;9.80;80.80;;;;;;5023277;28;20033;-71
2023/05/04 01:42:25;;;;;;;8.07;3.28;;;9.80;80.80;;;;;;5017551;28;20037;-73
2023/05/04 01:44:50;;;;;;;6.57;3.38;;;9.90;80.90;;;;;;5019550;28;20037;-73
2023/05/04 01:47:16;;;;;;;6.60;3.10;;;9.80;81.00;;;;;;5020012;28;20452;-73
2023/05/04 01:49:41;;;;;;;5.22;2.78;;;9.80;81.00;;;;;;5016519;28;20121;-73
2023/05/04 01:52:07;;;;;;;12.50;4.15;;;9.70;81.10;;;;;;5021846;28;20041;-73
2023/05/04 01:54:33;;;;;;;8.65;2.60;;;9.70;81.10;;;;;;5024563;28;20168;-72
2023/05/04 01:56:58;;;;;;;8.10;2.88;;;9.70;81.20;;;;;;5020421;28;20030;-73
2023/05/04 01:59:24;;;;;;;5.30;3.00;;;9.70;81.30;;;;;;5025455;28;20457;-73
2023/05/04 02:01:49;;;;;;;4.78;2.78;;;9.60;81.30;;;;;;5018258;28;20033;-73
2023/05/04 02:04:15;;;;;;;7.13;3.03;;;9.60;81.40;;;;;;5020659;28;20029;-73
2023/05/04 02:06:41;;;;;;;9.10;3.00;;;9.60;81.50;;;;;;5017475;28;20037;-72
2023/05/04 02:09:06;;;;;;;10.45;3.03;;;9.60;81.60;;;;;;5018581;28;20029;-72
2023/05/04 02:11:32;;;;;;;7.22;2.83;;;9.60;81.70;;;;;;5018822;28;20120;-72
2023/05/04 02:13:58;;;;;;;9.48;2.97;;;9.60;81.70;;;;;;5019376;28;20674;-72
2023/05/04 02:16:25;;;;;;;7.07;3.05;;;9.50;81.80;;;;;;5019584;28;20382;-71
2023/05/04 02:18:51;;;;;;;7.30;3.45;;;9.50;81.90;;;;;;5018037;28;20087;-73
2023/05/04 02:21:16;;;;;;;6.40;2.92;;;9.50;82.00;;;;;;5021483;28;20033;-72
2023/05/04 02:23:42;;;;;;;6.57;3.35;;;9.50;82.10;;;;;;5024377;28;20028;-72
2023/05/04 02:26:07;;;;;;;11.02;3.85;;;9.50;82.10;;;;;;5020981;28;20038;-71
2023/05/04 02:28:33;;;;;;;7.85;2.88;;;9.50;82.20;;;;;;5020421;28;20499;-72
2023/05/04 02:30:59;;;;;;;9.85;3.70;;;9.50;82.30;;;;;;5020215;28;20611;-72
2023/05/04 02:33:24;;;;;;;6.93;2.53;;;9.50;82.30;;;;;;5020257;28;20160;-72
2023/05/04 02:35:50;;;;;;;6.65;3.22;;;9.50;82.50;;;;;;5014967;28;20119;-72
2023/05/04 02:38:16;;;;;;;6.65;2.97;;;9.50;83.00;;;;;;5019756;28;20075;-72
2023/05/04 02:40:41;;;;;;;8.10;3.58;;;9.50;82.60;;;;;;5021509;28;20064;-72
2023/05/04 02:43:07;;;;;;;8.25;3.17;;;9.40;82.60;;;;;;5019807;28;20037;-73
2023/05/04 02:45:33;;;;;;;7.38;3.10;;;9.40;82.80;;;;;;5021027;28;20081;-72
2023/05/04 02:47:59;;;;;;;6.90;3.85;;;9.40;82.80;;;;;;5017763;28;20084;-71
2023/05/04 02:50:25;;;;;;;5.88;3.03;;;9.40;82.80;;;;;;5018677;28;20030;-73
2023/05/04 02:52:50;;;;;;;9.05;2.92;;;9.40;82.90;;;;;;5015701;28;20041;-72
2023/05/04 02:55:16;;;;;;;6.47;2.97;;;9.40;82.90;;;;;;5020448;28;20078;-72
2023/05/04 02:57:41;;;;;;;7.50;2.90;;;9.30;82.90;;;;;;5013364;28;20030;-72
2023/05/04 03:00:07;;;;;;;7.20;3.20;;;9.30;83.10;;;;;;5020145;28;20033;-72
2023/05/04 03:02:33;;;;;;;7.88;2.92;;;9.30;83.30;;;;;;5017985;28;20473;-72
2023/05/04 03:04:59;;;;;;;5.78;2.85;;;9.20;83.30;;;;;;5019231;28;20112;-72
2023/05/04 03:07:25;;;;;;;9.23;3.15;;;9.20;83.40;;;;;;5013279;28;20033;-72
2023/05/04 03:09:50;;;;;;;6.82;2.72;;;9.20;83.50;;;;;;5018341;28;20029;-72
2023/05/04 03:12:16;;;;;;;6.50;3.35;;;9.20;83.50;;;;;;5020870;28;20465;-72
2023/05/04 03:14:41;;;;;;;8.10;3.40;;;9.20;83.50;;;;;;5021550;28;20071;-72
2023/05/04 03:17:07;;;;;;;7.25;2.90;;;9.20;83.60;;;;;;5015084;28;20065;-72
2023/05/04 03:19:33;;;;;;;8.88;3.40;;;9.20;83.70;;;;;;5021575;28;20024;-72
2023/05/04 03:21:58;;;;;;;6.45;2.95;;;9.10;83.70;;;;;;5018526;28;20405;-72
2023/05/04 03:24:24;;;;;;;10.50;3.22;;;9.10;83.80;;;;;;5016281;28;20030;-71
2023/05/04 03:26:50;;;;;;;6.28;2.80;;;9.10;83.80;;;;;;5023150;28;20029;-71
2023/05/04 03:29:15;;;;;;;9.38;3.20;;;9.10;83.90;;;;;;5019348;28;20029;-72
2023/05/04 03:31:41;;;;;;;7.35;3.33;;;9.10;84.00;;;;;;5020345;28;20041;-71
2023/05/04 03:34:08;;;;;;;5.90;2.80;;;9.10;84.00;;;;;;5014216;28;20108;-71
2023/05/04 03:36:34;;;;;;;8.73;3.20;;;9.00;84.10;;;;;;5018942;28;20118;-72
2023/05/04 03:39:00;;;;;;;8.80;4.07;;;9.00;84.10;;;;;;5019417;28;20171;-72
2023/05/04 03:41:25;;;;;;;7.13;3.22;;;9.00;84.20;;;;;;5021478;28;20040;-71
2023/05/04 03:43:51;;;;;;;7.28;3.42;;;9.00;84.30;;;;;;5020708;28;20060;-71
2023/05/04 03:46:16;;;;;;;5.72;2.83;;;9.10;84.30;;;;;;5019267;28;20321;-73
2023/05/04 03:48:42;;;;;;;6.88;3.45;;;9.00;84.30;;;;;;5016117;28;20022;-73
2023/05/04 03:51:07;;;;;;;7.22;3.28;;;9.00;84.30;;;;;;5020262;28;20053;-72
2023/05/04 03:53:34;;;;;;;8.57;3.50;;;9.00;84.40;;;;;;5020071;28;20461;-72
2023/05/04 03:56:00;;;;;;;7.47;3.53;;;9.00;84.60;;;;;;5019359;28;20075;-72
2023/05/04 03:58:26;;;;;;;6.65;3.38;;;9.00;84.70;;;;;;5015739;28;20029;-73
2023/05/04 04:00:51;;;;;;;7.43;2.88;;;9.00;84.70;;;;;;5017989;28;20033;-73
2023/05/04 04:03:17;;;;;;;5.72;2.90;;;9.00;84.70;;;;;;5015621;28;20037;-72
2023/05/04 04:05:43;;;;;;;8.35;3.30;;;9.00;84.70;;;;;;5013750;28;20554;-72
2023/05/04 04:08:09;;;;;;;7.22;3.25;;;9.00;84.70;;;;;;5018754;28;20037;-73
2023/05/04 04:10:34;;;;;;;11.40;4.35;;;9.00;84.70;;;;;;5017955;28;20026;-72
2023/05/04 04:13:00;;;;;;;5.30;3.42;;;9.00;84.70;;;;;;5015118;28;20037;-72
2023/05/04 04:15:25;;;;;;;4.80;3.03;;;9.00;84.80;;;;;;5023929;28;20041;-72
2023/05/04 04:17:52;;;;;;;8.23;3.65;;;9.00;84.80;;;;;;5019884;28;20039;-73
2023/05/04 04:20:17;;;;;;;5.13;2.55;;;9.00;85.40;;;;;;5020404;28;20095;-72
2023/05/04 04:22:43;;;;;;;7.53;3.30;;;9.00;84.90;;;;;;5025310;28;20061;-73
2023/05/04 04:25:09;;;;;;;6.07;2.97;;;9.10;85.00;;;;;;5022686;28;20040;-73
2023/05/04 04:27:35;;;;;;;8.82;3.08;;;9.10;85.00;;;;;;5020168;28;20468;-73
2023/05/04 04:30:05;;;;;;;7.70;4.03;;;9.00;85.00;;;;;;5016408;28;20037;-72
2023/05/04 04:32:30;;;;;;;6.00;3.40;;;9.10;85.20;;;;;;5021705;28;20033;-72
2023/05/04 04:34:56;;;;;;;4.68;2.75;;;9.10;85.20;;;;;;5023247;28;20037;-72
2023/05/04 04:37:22;;;;;;;6.43;3.13;;;9.10;85.40;;;;;;5020707;28;20520;-72
2023/05/04 04:39:47;;;;;;;6.63;3.58;;;9.10;85.40;;;;;;5020477;28;20041;-73
2023/05/04 04:42:13;;;;;;;4.80;3.00;;;9.10;85.30;;;;;;5022235;28;20032;-72
2023/05/04 04:44:39;;;;;;;7.43;3.58;;;9.10;85.30;;;;;;5025056;28;20428;-73
2023/05/04 04:47:05;;;;;;;8.80;3.13;;;9.10;85.20;;;;;;5020677;28;20029;-73
2023/05/04 04:49:31;;;;;;;7.45;3.53;;;9.10;85.20;;;;;;5024234;28;20026;-72
2023/05/04 04:51:56;;;;;;;8.02;3.78;;;9.20;85.30;;;;;;5020499;28;20121;-72
2023/05/04 04:54:22;;;;;;;7.45;3.22;;;9.20;85.10;;;;;;5027196;28;20429;-72
2023/05/04 04:56:48;;;;;;;7.07;3.97;;;9.20;85.20;;;;;;5026092;28;20116;-71
2023/05/04 04:59:13;;;;;;;10.80;3.42;;;9.20;85.20;;;;;;5026059;28;20041;-72
2023/05/04 05:01:40;;;;;;;21.52;4.78;;;9.20;85.20;;;;;;5017360;28;20037;-73
2023/05/04 05:04:06;;;;;;;6.72;2.95;;;9.20;85.20;;;;;;5018902;28;20483;-73
2023/05/04 05:06:32;;;;;;;6.47;3.47;;;9.10;85.20;;;;;;5021632;28;20036;-73
2023/05/04 05:08:57;;;;;;;7.07;3.85;;;9.10;85.20;;;;;;5019582;28;20049;-73
2023/05/04 05:11:23;;;;;;;9.85;3.40;;;9.20;85.30;;;;;;5015970;28;20130;-73
2023/05/04 05:13:49;;;;;;;5.75;3.03;;;9.20;85.30;;;;;;5021336;28;20036;-73
2023/05/04 05:16:14;;;;;;;6.85;3.60;;;9.20;85.50;;;;;;5020675;28;20026;-73
2023/05/04 05:18:41;;;;;;;8.43;3.70;;;9.20;85.40;;;;;;5016055;28;20331;-73
2023/05/04 05:21:06;;;;;;;9.55;4.45;;;9.30;85.50;;;;;;5018389;28;20040;-73
2023/05/04 05:23:32;;;;;;;7.28;3.25;;;9.40;85.50;;;;;;5022456;28;20473;-73
2023/05/04 05:25:57;;;;;;;11.07;4.15;;;9.40;85.50;;;;;;5017957;28;20033;-72
2023/05/04 05:28:23;;;;;;;7.63;3.88;;;9.50;85.60;;;;;;5020995;28;20499;-74
2023/05/04 05:30:50;;;;;;;7.20;4.15;;;9.60;85.60;;;;;;5018997;28;20049;-74
2023/05/04 05:33:16;;;;;;;9.77;3.88;;;9.60;85.50;;;;;;5018354;28;20049;-73
2023/05/04 05:35:42;;;;;;;11.43;3.63;;;9.70;85.50;;;;;;5019648;28;20034;-73
2023/05/04 05:38:09;;;;;;;11.55;3.65;;;9.80;85.40;;;;;;5018096;28;20045;-73
2023/05/04 05:40:35;;;;;;;8.30;3.63;;;9.90;85.20;;;;;;5018045;28;20037;-73
2023/05/04 05:43:01;;;;;;;13.93;3.85;;;9.90;85.00;;;;;;5021762;28;20217;-73
2023/05/04 05:45:27;;;;;;;8.07;3.60;;;10.00;85.00;;;;;;5021101;28;20682;-73
2023/05/04 05:47:53;;;;;;;6.60;4.28;;;10.00;85.10;;;;;;5022330;28;20120;-73
2023/05/04 05:50:19;;;;;;;6.90;3.70;;;10.10;85.00;;;;;;5021429;28;20626;-73
2023/05/04 05:52:45;;;;;;;8.45;4.30;;;10.20;84.90;;;;;;5018978;28;20037;-73
2023/05/04 05:55:10;;;;;;;10.38;4.00;;;10.30;84.80;;;;;;5022872;28;20036;-73
2023/05/04 05:57:36;;;;;;;7.82;4.03;;;10.30;84.70;;;;;;5024277;28;20604;-73
2023/05/04 06:00:03;;;;;;;8.52;4.05;;;10.40;84.70;;;;;;5017032;28;20056;-73
2023/05/04 06:02:29;;;;;;;7.70;3.42;;;10.50;84.60;;;;;;5014131;28;20026;-74
2023/05/04 06:04:55;;;;;;;6.72;3.58;;;10.60;84.50;;;;;;5025669;28;20037;-72
2023/05/04 06:07:21;;;;;;;7.60;3.83;;;10.60;84.40;;;;;;5022787;28;20231;-73
2023/05/04 06:09:46;;;;;;;12.00;3.53;;;10.70;84.30;;;;;;5018521;28;20492;-73
2023/05/04 06:12:13;;;;;;;6.78;3.85;;;10.80;84.40;;;;;;5022645;28;20116;-74
2023/05/04 06:14:39;;;;;;;7.22;3.72;;;10.80;84.30;;;;;;5019238;28;20026;-72
2023/05/04 06:17:05;;;;;;;9.27;3.38;;;10.90;84.20;;;;;;5015404;28;20029;-71
2023/05/04 06:19:35;;;;;;;9.18;4.05;;;11.00;84.10;;;;;;5018627;28;20535;-74
2023/05/04 06:22:00;;;;;;;8.00;3.53;;;11.00;84.20;;;;;;5017522;28;20056;-73
2023/05/04 06:24:26;;;;;;;8.60;3.30;;;11.10;84.10;;;;;;5019424;28;20046;-73
2023/05/04 06:26:51;;;;;;;6.60;4.18;;;11.10;84.00;;;;;;5033258;28;20030;-73
2023/05/04 06:29:17;;;;;;;7.55;3.65;;;11.20;83.70;;;;;;5014862;28;20469;-74
2023/05/04 06:31:44;;;;;;;7.00;4.22;;;11.30;83.70;;;;;;5018102;28;20484;-72
2023/05/04 06:34:10;;;;;;;7.38;4.50;;;11.40;83.60;;;;;;5016512;28;20036;-73
2023/05/04 06:36:36;;;;;;;9.40;4.30;;;11.40;83.30;;;;;;5016205;28;20384;-72
2023/05/04 06:39:01;;;;;;;8.60;4.35;;;11.50;83.20;;;;;;5019073;28;20041;-73
2023/05/04 06:41:27;;;;;;;10.90;3.90;;;11.50;82.90;;;;;;5015072;28;20038;-73
2023/05/04 06:43:53;;;;;;;9.93;4.50;;;11.60;82.60;;;;;;5017385;28;20041;-73
2023/05/04 06:46:19;;;;;;;6.95;4.15;;;11.60;82.50;;;;;;5019907;28;20510;-72
2023/05/04 06:48:44;;;;;;;10.20;4.10;;;11.70;82.40;;;;;;5014352;28;20029;-72
2023/05/04 06:51:10;;;;;;;8.73;4.00;;;11.70;82.10;;;;;;5020146;28;20030;-71
2023/05/04 06:53:35;;;;;;;10.82;3.88;;;11.80;81.90;;;;;;5011686;28;20038;-71
2023/05/04 06:56:01;;;;;;;6.10;3.90;;;11.90;81.70;;;;;;5023367;28;20108;-72
2023/05/04 06:58:27;;;;;;;9.20;3.83;;;11.90;81.50;;;;;;5019996;28;20022;-72
2023/05/04 07:00:52;;;;;;;6.68;3.30;;;12.00;81.30;;;;;;5012403;28;20188;-72
2023/05/04 07:03:18;;;;;;;7.40;3.92;;;12.10;81.20;;;;;;5016576;28;20080;-72
2023/05/04 07:05:44;;;;;;;9.45;3.30;;;12.20;81.00;;;;;;5011966;28;20021;-71
2023/05/04 07:08:10;;;;;;;9.90;4.13;;;12.20;81.10;;;;;;5015443;28;20105;-71
2023/05/04 07:10:36;;;;;;;11.70;4.15;;;12.30;81.10;;;;;;5013361;28;20026;-71
2023/05/04 07:13:02;;;;;;;8.02;4.15;;;12.40;80.70;;;;;;5014030;28;20490;-70
2023/05/04 07:15:28;;;;;;;6.90;3.60;;;12.50;80.50;;;;;;5023181;28;20029;-70
2023/05/04 07:17:54;;;;;;;7.30;4.07;;;12.50;80.20;;;;;;5013973;28;20584;-70
2023/05/04 07:20:20;;;;;;;7.78;4.00;;;12.60;79.90;;;;;;5018514;28;20315;-70
2023/05/04 07:22:46;;;;;;;6.50;3.13;;;12.70;79.80;;;;;;5021459;28;20432;-70
2023/05/04 07:25:12;;;;;;;10.82;3.50;;;12.70;79.50;;;;;;5012794;28;20030;-70
2023/05/04 07:27:38;;;;;;;8.20;3.88;;;12.80;79.60;;;;;;5018919;28;20464;-70
2023/05/04 07:30:05;;;;;;;7.32;3.35;;;12.90;79.50;;;;;;5020360;28;20040;-70
2023/05/04 07:32:31;;;;;;;9.48;3.80;;;13.00;79.40;;;;;;5013753;28;20485;-71
2023/05/04 07:34:57;;;;;;;7.00;3.63;;;13.10;79.20;;;;;;5017198;28;20088;-71
2023/05/04 07:37:22;;;;;;;8.85;3.22;;;13.20;79.00;;;;;;5017421;28;20049;-71
2023/05/04 07:39:48;;;;;;;4.97;2.92;;;13.20;78.40;;;;;;5016417;28;20432;-70
2023/05/04 07:42:14;;;;;;;8.20;3.30;;;13.30;78.40;;;;;;5015266;28;20112;-71
2023/05/04 07:44:40;;;;;;;7.03;3.20;;;13.40;78.10;;;;;;5024653;28;20053;-71
2023/05/04 07:47:05;;;;;;;4.60;3.08;;;13.50;77.90;;;;;;5014660;28;20462;-71
2023/05/04 07:49:31;;;;;;;10.77;2.97;;;13.50;77.80;;;;;;5017069;28;20033;-71
2023/05/04 07:51:57;;;;;;;8.20;3.22;;;13.60;77.60;;;;;;5018116;28;20488;-71
2023/05/04 07:54:23;;;;;;;6.88;3.75;;;13.70;77.30;;;;;;5021909;28;20041;-71
2023/05/04 07:56:48;;;;;;;9.70;3.50;;;13.80;77.60;;;;;;5015659;28;20540;-71
2023/05/04 07:59:17;;;;;;;6.80;3.15;;;13.90;76.90;;;;;;5015170;28;20091;-71
2023/05/04 08:01:43;;;;;;;6.03;3.50;;;14.00;77.10;;;;;;5013072;28;20029;-71
2023/05/04 08:04:09;;;;;;;10.20;3.65;;;14.10;76.40;;;;;;5011654;28;20492;-71
2023/05/04 08:06:38;;;;;;;11.20;3.05;;;14.20;75.80;;;;;;5011960;28;20033;-71
2023/05/04 08:09:04;;;;;;;9.05;3.00;;;14.30;75.40;;;;;;5015339;28;20030;-71
2023/05/04 08:11:32;;;;;;;6.10;2.50;;;14.30;75.60;;;;;;5020011;28;20029;-71
2023/05/04 08:13:57;;;;;;;9.57;3.97;;;14.40;75.30;;;;;;5018497;28;20045;-71
2023/05/04 08:16:23;;;;;;;6.90;2.83;;;14.60;74.60;;;;;;5016702;28;20397;-70
2023/05/04 08:18:48;;;;;;;8.90;3.72;;;14.60;74.20;;;;;;5019578;28;20061;-71
2023/05/04 08:21:14;;;;;;;6.28;3.80;;;14.70;74.00;;;;;;5015732;28;20544;-71
2023/05/04 08:23:40;;;;;;;7.35;3.28;;;14.80;73.70;;;;;;5024240;28;20026;-69
2023/05/04 08:26:05;;;;;;;6.05;3.20;;;14.90;73.40;;;;;;5011610;28;20157;-69
2023/05/04 08:28:36;;;;;;;8.65;3.30;;;15.00;73.10;;;;;;5021922;28;20036;-72
2023/05/04 08:31:02;;;;;;;10.80;3.58;;;15.10;72.50;;;;;;5011939;28;20441;-71
2023/05/04 08:33:29;;;;;;;9.45;2.90;;;15.20;72.40;;;;;;5015303;28;20045;-71
2023/05/04 08:35:54;;;;;;;7.68;2.55;;;15.30;72.40;;;;;;5011627;28;20030;-71
2023/05/04 08:38:20;;;;;;;5.25;2.67;;;15.40;72.00;;;;;;5014124;28;20119;-71
2023/05/04 08:40:46;;;;;;;6.68;2.67;;;15.50;71.60;;;;;;5015863;28;20022;-71
2023/05/04 08:43:11;;;;;;;4.88;2.70;;;15.50;70.80;;;;;;5017206;28;20025;-72
2023/05/04 08:45:38;;;;;;;6.18;2.88;;;15.60;70.20;;;;;;5011503;28;20084;-71
2023/05/04 08:48:06;;;;;;;6.13;2.38;;;15.70;68.80;;;;;;5011557;28;20056;-70
2023/05/04 08:50:36;;;;;;;5.10;2.80;;;15.80;68.80;;;;;;5012836;28;20067;-71
2023/05/04 08:53:05;;;;;;;7.82;2.45;;;15.90;69.10;;;;;;5009897;28;20042;-70
2023/05/04 08:55:34;;;;;;;7.03;2.63;;;15.90;67.90;;;;;;5012650;28;20576;-70
2023/05/04 08:58:03;;;;;;;6.10;2.78;;;16.00;67.00;;;;;;5024299;28;20077;-71
2023/05/04 09:00:30;;;;;;;6.13;2.28;;;16.00;66.80;;;;;;5013663;28;20104;-71
2023/05/04 09:02:58;;;;;;;4.18;2.55;;;16.00;66.70;;;;;;5014447;28;20054;-71
2023/05/04 09:05:25;;;;;;;5.40;2.58;;;16.10;66.40;;;;;;5014862;28;20029;-71
2023/05/04 09:07:51;;;;;;;5.78;2.67;;;16.20;66.30;;;;;;5028840;28;20116;-71
2023/05/04 09:10:18;;;;;;;5.35;2.45;;;16.30;66.20;;;;;;5023729;28;20026;-71
2023/05/04 09:12:43;;;;;;;7.03;3.10;;;16.40;65.80;;;;;;5020819;28;20033;-71
2023/05/04 09:15:17;;;;;;;4.93;2.65;;;16.40;65.80;;;;;;5017487;28;20464;-71
2023/05/04 09:17:58;;;;;;;6.10;2.35;;;16.50;65.60;;;;;;5025042;28;20122;-72
2023/05/04 09:20:24;;;;;;;11.27;2.72;;;16.60;65.00;;;;;;5020218;28;20041;-70
2023/05/04 09:23:06;;;;;;;7.97;3.17;;;16.60;65.10;;;;;;5025714;28;20358;-70
2023/05/04 09:25:33;;;;;;;8.48;2.40;;;16.70;64.80;;;;;;5022991;28;20036;-70
2023/05/04 09:27:59;;;;;;;5.75;2.33;;;16.80;64.90;;;;;;5028905;28;20056;-71
2023/05/04 09:30:25;;;;;;;10.52;3.83;;;16.90;66.00;;;;;;5029381;28;20056;-71
2023/05/04 09:32:51;;;;;;;6.28;2.83;;;17.00;65.70;;;;;;5021580;28;20084;-71
2023/05/04 09:35:26;;;;;;;8.48;2.80;;;17.10;65.40;;;;;;5015502;28;20390;-71
2023/05/04 09:37:52;;;;;;;8.55;2.55;;;17.30;65.60;;;;;;5017968;28;20070;-71
2023/05/04 09:40:28;;;;;;;5.10;2.10;;;17.40;64.60;;;;;;5031723;28;20036;-70
2023/05/04 09:42:57;;;;;;;4.90;2.47;;;17.50;64.50;;;;;;5023877;28;20432;-71
2023/05/04 09:45:22;;;;;;;4.05;2.45;;;17.60;64.20;;;;;;5016045;28;20048;-71
2023/05/04 09:47:51;;;;;;;3.92;2.20;;;17.70;65.00;;;;;;5014759;28;20030;-71
2023/05/04 09:50:21;;;;;;;3.65;2.50;;;17.70;64.10;;;;;;5015537;28;20481;-71
2023/05/04 09:52:48;;;;;;;5.30;2.60;;;17.80;63.90;;;;;;5014724;28;20029;-70
2023/05/04 09:55:15;;;;;;;5.85;2.55;;;17.90;63.60;;;;;;5022202;28;20305;-70
2023/05/04 09:57:42;;;;;;;4.70;2.42;;;18.00;63.50;;;;;;5023808;28;20040;-71
2023/05/04 10:00:14;;;;;;;5.57;2.55;;;18.00;63.50;;;;;;5021782;28;20036;-73
2023/05/04 10:02:41;;;;;;;5.85;2.92;;;18.10;62.50;;;;;;5026510;28;20388;-70
2023/05/04 10:05:08;;;;;;;4.57;2.20;;;18.20;62.80;;;;;;5019170;28;20029;-71
2023/05/04 10:07:34;;;;;;;6.97;2.35;;;18.20;62.10;;;;;;5014400;28;20026;-71
2023/05/04 10:10:00;;;;;;;5.00;2.53;;;18.30;61.70;;;;;;5017419;28;20083;-70
2023/05/04 10:12:26;;;;;;;5.32;2.17;;;18.40;61.80;;;;;;5016148;28;20447;-70
2023/05/04 10:14:52;;;;;;;8.32;3.75;;;18.40;61.50;;;;;;5020734;28;20034;-70
2023/05/04 10:17:42;;;;;;;4.47;2.53;;;18.50;61.00;;;;;;5023556;28;20353;-72
2023/05/04 10:20:14;;;;;;;4.30;2.30;;;18.60;60.60;;;;;;5024037;28;20121;-71
2023/05/04 10:23:10;;;;;;;6.88;2.35;;;18.60;60.00;;;;;;5015266;28;20057;-71
2023/05/04 10:26:06;;;;;;;7.03;2.72;;;18.70;60.60;;;;;;5015477;28;20390;-72
2023/05/04 10:29:11;;;;;;;5.20;2.30;;;18.80;59.30;;;;;;5022738;28;20029;-71
2023/05/04 10:31:41;;;;;;;9.93;2.60;;;18.80;60.20;;;;;;5023255;28;20032;-71
2023/05/04 10:34:07;;;;;;;4.50;2.10;;;18.80;59.60;;;;;;5021015;28;20068;-71
2023/05/04 10:36:38;;;;;;;3.50;2.33;;;18.80;59.00;;;;;;5021665;28;20029;-71
2023/05/04 10:39:15;;;;;;;6.95;2.35;;;18.80;58.10;;;;;;5022434;28;20053;-70
2023/05/04 10:41:41;;;;;;;8.60;3.13;;;18.80;57.60;;;;;;5024887;28;20029;-71
2023/05/04 10:44:08;;;;;;;6.20;2.88;;;18.80;57.80;;;;;;5019950;28;20029;-72
2023/05/04 10:46:34;;;;;;;4.88;2.80;;;18.80;58.20;;;;;;5013395;28;20022;-70
2023/05/04 10:49:00;;;;;;;6.43;2.90;;;18.90;58.10;;;;;;5015487;28;20030;-71
2023/05/04 10:51:26;;;;;;;5.30;3.22;;;18.90;58.40;;;;;;5021956;28;20029;-71
2023/05/04 10:53:52;;;;;;;4.15;2.42;;;19.00;58.40;;;;;;5025073;28;20079;-71
2023/05/04 10:56:24;;;;;;;9.25;3.00;;;19.10;58.00;;;;;;5040646;28;20040;-70
2023/05/04 10:58:51;;;;;;;6.22;2.80;;;19.20;57.70;;;;;;5017255;28;20071;-70
2023/05/04 11:01:18;;;;;;;7.35;2.55;;;19.30;57.80;;;;;;5015194;28;20086;-70
2023/05/04 11:03:44;;;;;;;6.35;2.40;;;19.30;58.90;;;;;;5021547;28;20355;-70
2023/05/04 11:06:22;;;;;;;6.75;2.50;;;19.40;57.60;;;;;;5027123;28;20439;-70
2023/05/04 11:08:58;;;;;;;5.13;2.63;;;19.40;57.30;;;;;;5021684;28;20030;-70
2023/05/04 11:11:24;;;;;;;5.97;2.35;;;19.50;57.00;;;;;;5014724;28;20069;-70
2023/05/04 11:13:50;;;;;;;7.43;3.63;;;19.50;56.90;;;;;;5031060;28;20480;-70
2023/05/04 11:16:26;;;;;;;6.47;2.47;;;19.50;56.70;;;;;;5027560;28;20044;-71
2023/05/04 11:19:06;;;;;;;4.53;2.05;;;19.60;56.10;;;;;;5016727;28;20424;-71
2023/05/04 11:21:32;;;;;;;4.15;2.55;;;19.60;56.00;;;;;;5027578;28;20349;-71
2023/05/04 11:23:59;;;;;;;6.15;2.80;;;19.60;56.30;;;;;;5025759;28;20029;-71
2023/05/04 11:26:25;;;;;;;5.25;2.55;;;19.60;56.00;;;;;;5018471;28;20033;-71
2023/05/04 11:28:51;;;;;;;7.32;2.88;;;19.60;55.60;;;;;;5023553;28;20068;-70
2023/05/04 11:31:18;;;;;;;3.90;2.28;;;19.70;55.80;;;;;;5013536;28;20033;-71
2023/05/04 11:33:45;;;;;;;3.88;2.22;;;19.70;55.10;;;;;;5018585;28;20447;-71
2023/05/04 11:36:12;;;;;;;6.15;2.83;;;19.70;55.20;;;;;;5027311;28;20082;-71
2023/05/04 11:38:37;;;;;;;3.42;2.20;;;19.70;54.40;;;;;;5014758;28;20053;-71
2023/05/04 11:41:03;;;;;;;3.70;2.35;;;19.80;53.90;;;;;;5036038;28;20033;-71
2023/05/04 11:43:31;;;;;;;2.78;1.95;;;19.80;54.40;;;;;;5019841;28;20149;-71
2023/05/04 11:45:59;;;;;;;5.55;2.75;;;19.80;54.90;;;;;;5012077;28;20125;-72
2023/05/04 11:48:26;;;;;;;5.57;2.90;;;20.00;55.00;;;;;;5013427;28;20555;-71
2023/05/04 11:50:54;;;;;;;5.93;3.03;;;20.10;54.80;;;;;;5012750;28;20030;-72
2023/05/04 11:53:21;;;;;;;4.32;2.33;;;20.20;54.60;;;;;;5012583;28;20026;-71
2023/05/04 11:55:48;;;;;;;6.32;2.45;;;20.10;53.70;;;;;;5013861;28;20059;-71
2023/05/04 11:58:14;;;;;;;6.32;2.63;;;20.10;52.70;;;;;;5011938;28;20387;-71
2023/05/04 12:00:44;;;;;;;6.43;2.33;;;20.10;53.00;;;;;;5013183;28;20047;-72
2023/05/04 12:03:15;;;;;;;4.88;2.08;;;20.20;53.30;;;;;;5022975;28;20032;-70
2023/05/04 12:05:52;;;;;;;5.63;2.42;;;20.20;53.40;;;;;;5025081;28;20048;-71
2023/05/04 12:08:33;;;;;;;4.85;2.38;;;20.30;52.70;;;;;;5014297;28;20491;-71
2023/05/04 12:11:25;;;;;;;7.25;3.03;;;20.30;53.00;;;;;;5020047;28;20053;-71
2023/05/04 12:14:12;;;;;;;4.72;2.40;;;20.30;53.40;;;;;;5013222;28;20338;-71
2023/05/04 12:16:39;;;;;;;5.35;2.80;;;20.50;53.60;;;;;;5013078;28;20036;-72
2023/05/04 12:19:11;;;;;;;4.30;2.20;;;20.50;53.00;;;;;;5015620;28;20433;-72
2023/05/04 12:21:51;;;;;;;4.50;2.30;;;20.60;52.80;;;;;;5017943;28;20033;-72
2023/05/04 12:24:18;;;;;;;3.40;2.17;;;20.70;53.10;;;;;;5013037;28;20040;-72
2023/05/04 12:26:44;;;;;;;6.13;2.30;;;20.70;53.20;;;;;;5017713;28;20362;-72
2023/05/04 12:29:10;;;;;;;5.32;2.28;;;20.90;53.50;;;;;;5021038;28;20036;-72
2023/05/04 12:31:35;;;;;;;4.20;2.25;;;21.00;54.00;;;;;;5018696;28;20385;-72
2023/05/04 12:34:01;;;;;;;3.63;2.00;;;21.00;53.40;;;;;;5014344;28;20541;-72
2023/05/04 12:36:26;;;;;;;5.88;2.30;;;21.10;52.90;;;;;;5019690;28;20052;-72
2023/05/04 12:38:52;;;;;;;5.90;2.50;;;21.20;53.00;;;;;;5028973;28;20087;-72
2023/05/04 12:41:18;;;;;;;4.15;2.20;;;21.30;52.50;;;;;;5029606;28;20037;-72
2023/05/04 12:43:44;;;;;;;7.72;2.92;;;21.30;51.80;;;;;;5021835;28;20026;-71
2023/05/04 12:46:09;;;;;;;5.55;2.97;;;21.40;52.40;;;;;;5016215;28;20033;-72
2023/05/04 12:48:35;;;;;;;3.40;2.13;;;21.40;51.80;;;;;;5024894;28;20652;-72
2023/05/04 12:51:03;;;;;;;5.65;2.45;;;21.50;51.50;;;;;;5025591;28;20030;-72